Time;durP1;ratioP1;P1;durP2;ratioP2;P2;SDS_P1;SDS_P2;PMS_P1;PMS_P2;Temp;Humidity;BMP_temperature;BMP_pressure;BME280_temperature;BME280_humidity;BME280_pressure;Samples;Min_cycle;Max_cycle;Signal;HPM_P1;HPM_P2
2019/06/02 00:00:29;;;;;;;4.4;3.3;;;;;;;;;;;;;
2019/06/02 00:02:51;;;;;;;9.1;3.8;;;;;;;;;;;;;
2019/06/02 00:05:17;;;;;;;6.1;3.4;;;;;;;;;;;;;
2019/06/02 00:07:50;;;;;;;5.6;3.5;;;;;;;;;;;;;
2019/06/02 00:10:07;;;;;;;13.2;4.2;;;;;;;;;;;;;
2019/06/02 00:12:32;;;;;;;8.7;3.5;;;;;;;;;;;;;
2019/06/02 00:15:00;;;;;;;6.1;3.2;;;;;;;;;;;;;
2019/06/02 00:17:27;;;;;;;5.4;3.1;;;;;;;;;;;;;
2019/06/02 00:19:53;;;;;;;7.4;3.5;;;;;;;;;;;;;
2019/06/02 00:22:24;;;;;;;4.8;2.9;;;;;;;;;;;;;
2019/06/02 00:24:48;;;;;;;4.8;3.2;;;;;;;;;;;;;
2019/06/02 00:27:18;;;;;;;4.6;3.1;;;;;;;;;;;;;
2019/06/02 00:29:43;;;;;;;6.6;3.2;;;;;;;;;;;;;
2019/06/02 00:32:17;;;;;;;4.3;3.6;;;;;;;;;;;;;
2019/06/02 00:34:36;;;;;;;6.6;3.6;;;;;;;;;;;;;
2019/06/02 00:37:03;;;;;;;4.2;3.2;;;;;;;;;;;;;
2019/06/02 00:39:32;;;;;;;3.8;3.2;;;;;;;;;;;;;
2019/06/02 00:42:03;;;;;;;4.5;3.1;;;;;;;;;;;;;
2019/06/02 00:44:31;;;;;;;5.3;2.9;;;;;;;;;;;;;
2019/06/02 00:47:03;;;;;;;4.2;3.1;;;;;;;;;;;;;
2019/06/02 00:49:28;;;;;;;4.3;3.6;;;;;;;;;;;;;
2019/06/02 00:51:54;;;;;;;5.6;3.4;;;;;;;;;;;;;
2019/06/02 00:54:21;;;;;;;5.8;3.3;;;;;;;;;;;;;
2019/06/02 00:56:47;;;;;;;5.4;3.4;;;;;;;;;;;;;
2019/06/02 00:59:18;;;;;;;5.7;3.5;;;;;;;;;;;;;
2019/06/02 01:01:46;;;;;;;6.2;3.4;;;;;;;;;;;;;
2019/06/02 01:04:24;;;;;;;4.8;3.6;;;;;;;;;;;;;
2019/06/02 01:06:57;;;;;;;4.5;3.4;;;;;;;;;;;;;
2019/06/02 01:09:28;;;;;;;4.5;3.4;;;;;;;;;;;;;
2019/06/02 01:11:58;;;;;;;5.7;3.6;;;;;;;;;;;;;
2019/06/02 01:14:25;;;;;;;6.1;3.4;;;;;;;;;;;;;
2019/06/02 01:16:46;;;;;;;5.5;3.4;;;;;;;;;;;;;
2019/06/02 01:19:12;;;;;;;5.3;3.2;;;;;;;;;;;;;
2019/06/02 01:21:39;;;;;;;4.3;3;;;;;;;;;;;;;
2019/06/02 01:24:06;;;;;;;5.5;3.2;;;;;;;;;;;;;
2019/06/02 01:26:33;;;;;;;7;3.3;;;;;;;;;;;;;
2019/06/02 01:29:09;;;;;;;4.1;3.1;;;;;;;;;;;;;
2019/06/02 01:31:32;;;;;;;4.8;3.2;;;;;;;;;;;;;
2019/06/02 01:33:57;;;;;;;3.6;3;;;;;;;;;;;;;
2019/06/02 01:36:32;;;;;;;4.2;3.2;;;;;;;;;;;;;
2019/06/02 01:39:03;;;;;;;5.5;3.6;;;;;;;;;;;;;
2019/06/02 01:41:39;;;;;;;5.7;3.3;;;;;;;;;;;;;
2019/06/02 01:44:08;;;;;;;5.2;3.1;;;;;;;;;;;;;
2019/06/02 01:46:41;;;;;;;4.3;3.4;;;;;;;;;;;;;
2019/06/02 01:49:05;;;;;;;4.7;3.2;;;;;;;;;;;;;
2019/06/02 01:51:25;;;;;;;4.4;3.2;;;;;;;;;;;;;
2019/06/02 01:53:50;;;;;;;5.2;3.5;;;;;;;;;;;;;
2019/06/02 01:56:23;;;;;;;4.5;3.7;;;;;;;;;;;;;
2019/06/02 01:58:40;;;;;;;3.7;3.1;;;;;;;;;;;;;
2019/06/02 02:01:09;;;;;;;4.3;3.5;;;;;;;;;;;;;
2019/06/02 02:03:39;;;;;;;3.6;3.3;;;;;;;;;;;;;
2019/06/02 02:06:03;;;;;;;6.4;3.5;;;;;;;;;;;;;
2019/06/02 02:08:30;;;;;;;11.9;3.6;;;;;;;;;;;;;
2019/06/02 02:10:55;;;;;;;6.9;3.7;;;;;;;;;;;;;
2019/06/02 02:13:23;;;;;;;3.8;3.2;;;;;;;;;;;;;
2019/06/02 02:15:51;;;;;;;5.7;3.2;;;;;;;;;;;;;
2019/06/02 02:18:27;;;;;;;4.5;3.4;;;;;;;;;;;;;
2019/06/02 02:20:50;;;;;;;4.9;3.5;;;;;;;;;;;;;
2019/06/02 02:23:27;;;;;;;4.9;3.6;;;;;;;;;;;;;
2019/06/02 02:25:51;;;;;;;5.6;3.6;;;;;;;;;;;;;
2019/06/02 02:28:24;;;;;;;5.7;3.5;;;;;;;;;;;;;
2019/06/02 02:30:51;;;;;;;6.1;3.8;;;;;;;;;;;;;
2019/06/02 02:33:22;;;;;;;3.8;3.4;;;;;;;;;;;;;
2019/06/02 02:35:42;;;;;;;3.5;3.2;;;;;;;;;;;;;
2019/06/02 02:38:10;;;;;;;5.5;3.7;;;;;;;;;;;;;
2019/06/02 02:40:34;;;;;;;7.5;3.5;;;;;;;;;;;;;
2019/06/02 02:43:02;;;;;;;4.9;3.3;;;;;;;;;;;;;
2019/06/02 02:45:27;;;;;;;4.2;3.4;;;;;;;;;;;;;
2019/06/02 02:47:57;;;;;;;3.8;3.4;;;;;;;;;;;;;
2019/06/02 02:50:22;;;;;;;3.8;3.4;;;;;;;;;;;;;
2019/06/02 02:52:48;;;;;;;5.5;3.7;;;;;;;;;;;;;
2019/06/02 02:55:16;;;;;;;3.8;3.3;;;;;;;;;;;;;
2019/06/02 02:57:39;;;;;;;5.5;3.7;;;;;;;;;;;;;
2019/06/02 03:00:04;;;;;;;7.5;3.4;;;;;;;;;;;;;
2019/06/02 03:02:34;;;;;;;4.9;3.6;;;;;;;;;;;;;
2019/06/02 03:05:00;;;;;;;5.5;3.8;;;;;;;;;;;;;
2019/06/02 03:07:34;;;;;;;4.7;3.7;;;;;;;;;;;;;
2019/06/02 03:10:02;;;;;;;8.1;3.9;;;;;;;;;;;;;
2019/06/02 03:12:27;;;;;;;4.4;3.5;;;;;;;;;;;;;
2019/06/02 03:14:52;;;;;;;4.2;3.8;;;;;;;;;;;;;
2019/06/02 03:17:19;;;;;;;5.5;3.6;;;;;;;;;;;;;
2019/06/02 03:19:45;;;;;;;5.8;3.6;;;;;;;;;;;;;
2019/06/02 03:22:18;;;;;;;5.1;3.6;;;;;;;;;;;;;
2019/06/02 03:24:43;;;;;;;6.9;3.6;;;;;;;;;;;;;
2019/06/02 03:27:16;;;;;;;4;3.4;;;;;;;;;;;;;
2019/06/02 03:29:49;;;;;;;8;3.6;;;;;;;;;;;;;
2019/06/02 03:32:11;;;;;;;4.4;3.4;;;;;;;;;;;;;
2019/06/02 03:34:44;;;;;;;3.8;3.4;;;;;;;;;;;;;
2019/06/02 03:37:13;;;;;;;5.8;3.6;;;;;;;;;;;;;
2019/06/02 03:39:49;;;;;;;5.8;3.9;;;;;;;;;;;;;
2019/06/02 03:42:14;;;;;;;3.7;3.4;;;;;;;;;;;;;
2019/06/02 03:44:52;;;;;;;4.4;3.2;;;;;;;;;;;;;
2019/06/02 03:47:17;;;;;;;7.1;3.6;;;;;;;;;;;;;
2019/06/02 03:49:43;;;;;;;4.2;3.4;;;;;;;;;;;;;
2019/06/02 03:52:09;;;;;;;5.2;3.8;;;;;;;;;;;;;
2019/06/02 03:54:35;;;;;;;6.3;3.7;;;;;;;;;;;;;
2019/06/02 03:57:00;;;;;;;6.5;3.4;;;;;;;;;;;;;
2019/06/02 03:59:28;;;;;;;5.1;3.7;;;;;;;;;;;;;
2019/06/02 04:03:38;;;;;;;4.1;3.4;;;;;;;12.42;79.79004;942.2059;;;;
2019/06/02 04:06:17;;;;;;;3.7;3.3;;;;;;;12.45;79.69141;942.2286;;;;
2019/06/02 04:08:41;;;;;;;5.4;3.6;;;;;;;12.02;81.16113;942.1961;;;;
2019/06/02 04:11:07;;;;;;;5.4;3.4;;;;;;;12.03;81.07031;942.2336;;;;
2019/06/02 04:13:53;;;;;;;4.9;3.6;;;;;;;12.03;81.2998;942.2001;;;;
2019/06/02 04:16:18;;;;;;;5.9;4.1;;;;;;;12.07;80.95117;942.1663;;;;
2019/06/02 04:18:44;;;;;;;5.8;3.8;;;;;;;12.04;81.08398;942.2369;;;;
2019/06/02 04:21:09;;;;;;;5.2;3.9;;;;;;;12.06;81.03027;942.2395;;;;
2019/06/02 04:23:38;;;;;;;5.6;3.7;;;;;;;12.17;80.54785;942.1392;;;;
2019/06/02 04:26:08;;;;;;;4.5;3.1;;;;;;;12.29;80.22559;942.1494;;;;
2019/06/02 04:28:36;;;;;;;4.1;3.3;;;;;;;12.48;79.58203;942.1746;;;;
2019/06/02 04:31:15;;;;;;;4.1;3.4;;;;;;;12.77;78.14453;942.2146;;;;
2019/06/02 04:33:37;;;;;;;6.2;3.7;;;;;;;12.38;79.75879;942.1797;;;;
2019/06/02 04:36:14;;;;;;;9.9;3.6;;;;;;;12.17;80.98145;942.1608;;;;
2019/06/02 04:38:37;;;;;;;4.3;3.4;;;;;;;12.36;80.25977;942.1476;;;;
2019/06/02 04:41:21;;;;;;;4;3.4;;;;;;;12.06;81.68262;942.1717;;;;
2019/06/02 04:43:52;;;;;;;6.1;3.6;;;;;;;12.42;80.12305;942.1077;;;;
2019/06/02 04:46:44;;;;;;;5.5;3.5;;;;;;;12.4;79.76172;942.08;;;;
2019/06/02 04:49:18;;;;;;;5.2;3.3;;;;;;;12.01;81.92676;942.095;;;;
2019/06/02 04:51:37;;;;;;;4.7;3.6;;;;;;;12;82.33594;942.0662;;;;
2019/06/02 04:54:04;;;;;;;3.9;3.5;;;;;;;12.34;80.87598;942.0261;;;;
2019/06/02 04:56:34;;;;;;;6;3.4;;;;;;;12.58;79.60059;942.101;;;;
2019/06/02 04:58:59;;;;;;;7.7;4.1;;;;;;;12.54;79.66406;942.0408;;;;
2019/06/02 05:01:23;;;;;;;6.1;3.8;;;;;;;12.74;78.87402;941.9915;;;;
2019/06/02 05:03:54;;;;;;;5.8;3.1;;;;;;;13.32;77.38184;941.9736;;;;
2019/06/02 05:06:27;;;;;;;6.7;2.7;;;;;;;14.39;73.35547;941.9644;;;;
2019/06/02 05:08:55;;;;;;;3.3;2.4;;;;;;;15.63;68.48047;941.8558;;;;
2019/06/02 05:11:25;;;;;;;3.6;2.5;;;;;;;16.64;64.99219;941.9113;;;;
2019/06/02 05:14:01;;;;;;;2.7;2.2;;;;;;;17.58;61.5918;941.8995;;;;
2019/06/02 05:16:26;;;;;;;7.1;2.1;;;;;;;18.42;58.47754;941.8954;;;;
2019/06/02 05:18:54;;;;;;;3.1;2;;;;;;;19.06;56.72363;941.8875;;;;
2019/06/02 05:21:23;;;;;;;3.1;1.7;;;;;;;19.34;55.19727;941.8795;;;;
2019/06/02 05:23:59;;;;;;;4.7;2;;;;;;;19.78;54.7168;941.9285;;;;
2019/06/02 05:26:25;;;;;;;4.1;1.7;;;;;;;20.05;53.04785;941.8594;;;;
2019/06/02 05:28:58;;;;;;;3.9;2.3;;;;;;;19.65;54.23438;941.8066;;;;
2019/06/02 05:31:30;;;;;;;2.6;1.9;;;;;;;20.16;52.65137;941.8418;;;;
2019/06/02 05:34:04;;;;;;;4.7;1.7;;;;;;;20.55;51.97266;941.7966;;;;
2019/06/02 05:36:45;;;;;;;5.9;1.7;;;;;;;21.09;50.27051;941.8045;;;;
2019/06/02 05:39:19;;;;;;;6.2;1.9;;;;;;;21.6;48.72363;941.7816;;;;
2019/06/02 05:41:54;;;;;;;3.9;1.7;;;;;;;21.85;47.67383;941.7833;;;;
2019/06/02 05:44:26;;;;;;;4.9;1.5;;;;;;;22.24;46.73145;941.8212;;;;
2019/06/02 05:47:08;;;;;;;2.7;1.5;;;;;;;22.4;45.10449;941.7874;;;;
2019/06/02 05:50:13;;;;;;;2.8;1.3;;;;;;;22.93;43.71387;941.7668;;;;
2019/06/02 05:52:37;;;;;;;3.5;1.6;;;;;;;23.08;43.44727;941.6379;;;;
2019/06/02 05:55:05;;;;;;;4.3;1.7;;;;;;;23.15;43.79395;941.6633;;;;
2019/06/02 05:57:32;;;;;;;5.3;1.4;;;;;;;23.17;43.10352;941.616;;;;
2019/06/02 06:00:10;;;;;;;3.2;2;;;;;;;23.47;44.73145;941.6306;;;;
2019/06/02 06:02:38;;;;;;;5.1;1.7;;;;;;;23.4;43.25391;941.6631;;;;
2019/06/02 06:05:41;;;;;;;1.7;1.3;;;;;;;23.74;41.99414;941.5673;;;;
2019/06/02 06:07:53;;;;;;;3.9;1.4;;;;;;;23.62;45.14746;941.5493;;;;
2019/06/02 06:10:25;;;;;;;2.2;1.2;;;;;;;24.53;39.61523;941.5464;;;;
2019/06/02 06:12:53;;;;;;;4;1.2;;;;;;;24.6;39.8457;941.5233;;;;
2019/06/02 06:15:23;;;;;;;4;1.4;;;;;;;25.31;38.7168;941.4891;;;;
2019/06/02 06:17:54;;;;;;;3.5;1.4;;;;;;;25.01;39.55273;941.5417;;;;
2019/06/02 06:20:26;;;;;;;6.8;1.6;;;;;;;25.53;38.67773;941.4822;;;;
2019/06/02 06:23:00;;;;;;;3.4;1.4;;;;;;;25.85;37.86523;941.4609;;;;
2019/06/02 06:25:44;;;;;;;4.9;1.5;;;;;;;25.6;38.49414;941.4055;;;;
2019/06/02 06:28:17;;;;;;;4.9;1.2;;;;;;;26.56;36.66992;941.3886;;;;
2019/06/02 06:30:43;;;;;;;2.9;1.3;;;;;;;27.04;35.87988;941.3973;;;;
2019/06/02 06:33:08;;;;;;;3;1;;;;;;;26.29;36.44824;941.3456;;;;
2019/06/02 06:35:35;;;;;;;1.9;1.2;;;;;;;26.4;37.92383;941.3426;;;;
2019/06/02 06:38:12;;;;;;;2.8;1.2;;;;;;;27.17;35.86621;941.3508;;;;
2019/06/02 06:40:42;;;;;;;1.7;1;;;;;;;27.37;34.8623;941.2794;;;;
2019/06/02 06:43:09;;;;;;;4.4;1.1;;;;;;;28.25;33.67188;941.3416;;;;
2019/06/02 06:45:41;;;;;;;5.4;1;;;;;;;28.53;31.68164;941.2972;;;;
2019/06/02 06:48:19;;;;;;;3.6;1.3;;;;;;;27.8;33.60254;941.2425;;;;
2019/06/02 06:50:53;;;;;;;3.4;1.2;;;;;;;27.87;35.82715;941.2631;;;;
2019/06/02 06:53:34;;;;;;;2.9;1;;;;;;;27.25;34.47363;941.2947;;;;
2019/06/02 06:56:08;;;;;;;2.1;1.1;;;;;;;28.49;33.80762;941.264;;;;
2019/06/02 06:58:41;;;;;;;2.5;1;;;;;;;29.22;31.23047;941.2104;;;;
2019/06/02 07:01:24;;;;;;;2;1.1;;;;;;;29.14;31.85547;941.2112;;;;
2019/06/02 07:04:04;;;;;;;4.7;1.1;;;;;;;28.92;33.19727;941.2383;;;;
2019/06/02 07:06:54;;;;;;;2.9;1.2;;;;;;;29.7;30.45313;941.193;;;;
2019/06/02 07:09:13;;;;;;;1.9;0.9;;;;;;;28.41;31.57813;941.1463;;;;
2019/06/02 07:11:42;;;;;;;2;1.1;;;;;;;28.61;33.55469;941.1747;;;;
2019/06/02 07:14:15;;;;;;;2.4;1;;;;;;;30.03;30.65332;941.1116;;;;
2019/06/02 07:16:52;;;;;;;2.8;0.9;;;;;;;30.36;30.00684;941.1526;;;;
2019/06/02 07:19:32;;;;;;;1.2;0.9;;;;;;;30.84;29.62012;941.1594;;;;
2019/06/02 07:22:18;;;;;;;1.3;0.9;;;;;;;31.77;29.80273;941.1591;;;;
2019/06/02 07:25:01;;;;;;;3;0.9;;;;;;;32.67;25.87598;941.1068;;;;
2019/06/02 07:27:42;;;;;;;3.7;1.2;;;;;;;31.62;27.63672;941.1644;;;;
2019/06/02 07:30:06;;;;;;;3.2;1;;;;;;;32.47;29.54785;941.108;;;;
2019/06/02 07:32:48;;;;;;;1.5;0.9;;;;;;;32.26;28.25098;941.1091;;;;
2019/06/02 07:35:18;;;;;;;2.2;0.9;;;;;;;32.67;28.48047;941.0751;;;;
2019/06/02 07:37:46;;;;;;;2.8;0.9;;;;;;;31.58;27.39453;941.0432;;;;
2019/06/02 07:40:24;;;;;;;1.4;0.9;;;;;;;32.08;26.0459;940.9868;;;;
2019/06/02 07:42:57;;;;;;;2.1;0.8;;;;;;;30.35;27.15234;941.0277;;;;
2019/06/02 07:45:28;;;;;;;3.6;0.9;;;;;;;30.39;29.45996;941.0067;;;;
2019/06/02 07:48:02;;;;;;;1.1;0.8;;;;;;;30.99;26.85645;940.9973;;;;
2019/06/02 07:50:30;;;;;;;1.4;0.9;;;;;;;31.31;29.99902;940.9503;;;;
2019/06/02 07:53:03;;;;;;;1.3;0.8;;;;;;;31.71;26.40723;940.9034;;;;
2019/06/02 07:55:37;;;;;;;2.3;0.9;;;;;;;32.5;26.71777;940.9481;;;;
2019/06/02 07:58:05;;;;;;;1.9;0.8;;;;;;;32.99;26.69922;940.9211;;;;
2019/06/02 08:00:37;;;;;;;1.4;0.9;;;;;;;33.62;25.24414;940.8339;;;;
2019/06/02 08:03:05;;;;;;;1.2;0.8;;;;;;;33.08;26.23535;940.7991;;;;
2019/06/02 08:05:37;;;;;;;4.4;0.7;;;;;;;33.7;25.03223;940.8279;;;;
2019/06/02 08:08:11;;;;;;;2.3;0.9;;;;;;;34.31;24.19922;940.7758;;;;
2019/06/02 08:10:37;;;;;;;3;0.8;;;;;;;34.9;22.08301;940.7642;;;;
2019/06/02 08:13:26;;;;;;;0.9;0.7;;;;;;;34.23;22.59277;940.8442;;;;
2019/06/02 08:15:49;;;;;;;3.6;0.9;;;;;;;34.32;22.11523;940.7254;;;;
2019/06/02 08:18:24;;;;;;;1.8;0.7;;;;;;;34.17;23.99902;940.7896;;;;
2019/06/02 08:20:58;;;;;;;1.6;0.8;;;;;;;34.92;24.13477;940.7863;;;;
2019/06/02 08:23:31;;;;;;;1.2;0.8;;;;;;;34.59;22.5625;940.6624;;;;
2019/06/02 08:26:16;;;;;;;1.1;0.7;;;;;;;34.71;21.16992;940.6885;;;;
2019/06/02 08:28:46;;;;;;;1.5;0.8;;;;;;;35.21;23.19629;940.633;;;;
2019/06/02 08:31:21;;;;;;;2;0.8;;;;;;;33.91;22.2998;940.6566;;;;
2019/06/02 08:33:49;;;;;;;1.3;0.7;;;;;;;34.97;21.45898;940.5867;;;;
2019/06/02 08:36:17;;;;;;;2.1;0.7;;;;;;;35.37;23.04785;940.5737;;;;
2019/06/02 08:38:44;;;;;;;1;0.6;;;;;;;35.24;20.73535;940.5927;;;;
2019/06/02 08:41:13;;;;;;;0.7;0.7;;;;;;;34.94;20.78223;940.6097;;;;
2019/06/02 08:43:44;;;;;;;1.2;0.6;;;;;;;35.13;23.49316;940.575;;;;
2019/06/02 08:46:16;;;;;;;1.2;0.8;;;;;;;34.5;26.17285;940.5248;;;;
2019/06/02 08:48:55;;;;;;;2.5;0.7;;;;;;;34.55;22.69336;940.5294;;;;
2019/06/02 08:51:29;;;;;;;1;0.7;;;;;;;35.07;22.12793;940.5906;;;;
2019/06/02 08:54:03;;;;;;;1.8;0.7;;;;;;;35;22.57031;940.5598;;;;
2019/06/02 08:56:28;;;;;;;1;0.7;;;;;;;34.4;21.09473;940.5418;;;;
2019/06/02 08:59:03;;;;;;;1.1;0.7;;;;;;;33.54;21.90918;940.4687;;;;
2019/06/02 09:01:34;;;;;;;2.3;0.8;;;;;;;33.76;22.97852;940.4239;;;;
2019/06/02 09:04:07;;;;;;;3.7;0.9;;;;;;;32.58;24.58691;940.4501;;;;
2019/06/02 09:06:38;;;;;;;2.3;0.8;;;;;;;33.14;23.13965;940.45;;;;
2019/06/02 09:09:10;;;;;;;4;0.8;;;;;;;32.95;23.95801;940.3394;;;;
2019/06/02 09:11:37;;;;;;;1.5;0.9;;;;;;;32.93;26.0957;940.4081;;;;
2019/06/02 09:14:11;;;;;;;2.1;0.8;;;;;;;32.88;23.53418;940.3705;;;;
2019/06/02 09:16:39;;;;;;;3.2;1;;;;;;;31.87;22.23633;940.3958;;;;
2019/06/02 09:19:05;;;;;;;0.9;0.7;;;;;;;30.81;23.47461;940.296;;;;
2019/06/02 09:21:38;;;;;;;2.2;0.9;;;;;;;30.82;27.09766;940.3287;;;;
2019/06/02 09:24:10;;;;;;;2.4;0.8;;;;;;;31.38;24.47461;940.3231;;;;
2019/06/02 09:26:42;;;;;;;2.3;0.8;;;;;;;31.4;30.375;940.3205;;;;
2019/06/02 09:29:13;;;;;;;1.5;0.7;;;;;;;31.46;27.25488;940.2968;;;;
2019/06/02 09:31:41;;;;;;;1;0.7;;;;;;;32.08;23.00195;940.2524;;;;
2019/06/02 09:34:17;;;;;;;2;0.7;;;;;;;32.06;23.37207;940.2302;;;;
2019/06/02 09:36:51;;;;;;;3.8;1.6;;;;;;;31.55;23.07129;940.2319;;;;
2019/06/02 09:39:19;;;;;;;2.8;0.9;;;;;;;31;27.12012;940.1431;;;;
2019/06/02 09:42:08;;;;;;;2.5;1.2;;;;;;;31.67;27.37598;940.163;;;;
2019/06/02 09:44:36;;;;;;;3;1.1;;;;;;;31.57;27.88477;940.1593;;;;
2019/06/02 09:47:07;;;;;;;2.2;0.9;;;;;;;30.5;27.06738;940.1509;;;;
2019/06/02 09:50:20;;;;;;;1.9;1.2;;;;;;;30.99;31.87891;940.0931;;;;
2019/06/02 09:52:50;;;;;;;2;0.9;;;;;;;30.64;31.04102;940.137;;;;
2019/06/02 09:55:17;;;;;;;3.1;1;;;;;;;30.95;31.58887;940.1393;;;;
2019/06/02 09:58:00;;;;;;;1.3;1;;;;;;;31.07;28.61914;940.0708;;;;
2019/06/02 10:00:43;;;;;;;2.2;0.9;;;;;;;31.1;28.16699;940.0259;;;;
2019/06/02 10:03:32;;;;;;;3.8;1.1;;;;;;;31.43;29.02539;940.082;;;;
2019/06/02 10:05:57;;;;;;;2.7;0.9;;;;;;;31.2;25.87598;940.0825;;;;
2019/06/02 10:08:21;;;;;;;1.3;0.9;;;;;;;31.51;28.36035;940.0687;;;;
2019/06/02 10:10:56;;;;;;;2.8;0.9;;;;;;;31.82;28.30762;940.0623;;;;
2019/06/02 10:13:35;;;;;;;2.2;0.9;;;;;;;32.16;26.75781;940.0277;;;;
2019/06/02 10:16:11;;;;;;;1.5;0.9;;;;;;;31.87;27.42383;940.0228;;;;
2019/06/02 10:19:04;;;;;;;7.1;2.7;;;;;;;31.72;29.46387;939.9957;;;;
2019/06/02 10:21:45;;;;;;;10.7;4.5;;;;;;;31.74;28.54199;939.9613;;;;
2019/06/02 10:24:08;;;;;;;2.5;1;;;;;;;31.74;29.77539;939.9139;;;;
2019/06/02 10:27:00;;;;;;;1.8;1.1;;;;;;;32.29;28.60059;940.0048;;;;
2019/06/02 10:29:26;;;;;;;3.9;1.7;;;;;;;32.75;27.62109;939.9316;;;;
2019/06/02 10:31:55;;;;;;;4.8;1.9;;;;;;;32.91;27.81055;939.9464;;;;
2019/06/02 10:34:18;;;;;;;3.4;1.6;;;;;;;32.89;27.11328;939.9412;;;;
2019/06/02 10:37:00;;;;;;;3.6;1.3;;;;;;;32.79;26.92773;939.8967;;;;
2019/06/02 10:39:37;;;;;;;3.1;1.2;;;;;;;31.69;28.82617;939.9008;;;;
2019/06/02 10:42:28;;;;;;;3;1.3;;;;;;;32.01;29.0625;939.865;;;;
2019/06/02 10:45:00;;;;;;;1.6;1;;;;;;;31.92;27.35449;939.8511;;;;
2019/06/02 10:47:38;;;;;;;4.8;1.1;;;;;;;31.99;27.55176;939.8994;;;;
2019/06/02 10:50:10;;;;;;;2.6;1;;;;;;;31.91;28.00195;939.8301;;;;
2019/06/02 10:52:52;;;;;;;1.9;1.2;;;;;;;31.31;27.83398;939.7822;;;;
2019/06/02 10:55:28;;;;;;;3.4;1.1;;;;;;;31.7;28.62305;939.8229;;;;
2019/06/02 10:57:59;;;;;;;4;1.1;;;;;;;31.53;28.75586;939.7261;;;;
2019/06/02 11:00:34;;;;;;;8;1.7;;;;;;;31.39;30.39844;939.7213;;;;
2019/06/02 11:03:14;;;;;;;2.5;1.2;;;;;;;31.09;30.96484;939.6719;;;;
2019/06/02 11:05:42;;;;;;;5.6;1.3;;;;;;;30.97;30.21484;939.6404;;;;
2019/06/02 11:08:09;;;;;;;3.2;1.1;;;;;;;30.54;29.56543;939.5867;;;;
2019/06/02 11:10:36;;;;;;;5.6;1.7;;;;;;;30.61;31.44531;939.6682;;;;
2019/06/02 11:13:18;;;;;;;6.1;2.1;;;;;;;30.71;29.92383;939.6014;;;;
2019/06/02 11:15:48;;;;;;;5;1.4;;;;;;;30.76;30.84668;939.571;;;;
2019/06/02 11:18:15;;;;;;;9.7;1.8;;;;;;;30.58;30.89453;939.5538;;;;
2019/06/02 11:20:45;;;;;;;7.6;1.6;;;;;;;30.34;31.52344;939.5511;;;;
2019/06/02 11:23:22;;;;;;;4.1;1.6;;;;;;;30.45;31.78125;939.4934;;;;
2019/06/02 11:25:56;;;;;;;4.7;1.5;;;;;;;30.62;30.13184;939.5;;;;
2019/06/02 11:28:31;;;;;;;3.9;1.4;;;;;;;30.82;29.97852;939.5209;;;;
2019/06/02 11:30:59;;;;;;;2.1;1;;;;;;;30.95;28.74316;939.4602;;;;
2019/06/02 11:33:24;;;;;;;4.2;1.5;;;;;;;31.13;29.90234;939.4111;;;;
2019/06/02 11:36:04;;;;;;;3.2;1.1;;;;;;;30.94;30.30957;939.3641;;;;
2019/06/02 11:38:30;;;;;;;4.2;1.8;;;;;;;30.69;29.79004;939.3817;;;;
2019/06/02 11:41:02;;;;;;;2;1;;;;;;;29.85;33.13477;939.3677;;;;
2019/06/02 11:43:36;;;;;;;6.4;2;;;;;;;30.19;32.19238;939.3406;;;;
2019/06/02 11:46:03;;;;;;;3.5;1.4;;;;;;;30.54;31.28516;939.2894;;;;
2019/06/02 11:48:38;;;;;;;5.1;1.1;;;;;;;30.4;30.57129;939.2473;;;;
2019/06/02 11:51:13;;;;;;;3.7;1.1;;;;;;;30.16;33.20508;939.2145;;;;
2019/06/02 11:54:02;;;;;;;6.1;1.5;;;;;;;30.49;30.30371;939.2054;;;;
2019/06/02 11:56:38;;;;;;;4.7;1.5;;;;;;;30.87;29.22852;939.1802;;;;
2019/06/02 11:59:06;;;;;;;3.6;1.2;;;;;;;31.04;31.05762;939.185;;;;
2019/06/02 12:01:35;;;;;;;3.7;1.2;;;;;;;31.12;29.50684;939.115;;;;
2019/06/02 12:04:06;;;;;;;7.6;1.3;;;;;;;30.92;30.04492;939.0787;;;;
2019/06/02 12:06:32;;;;;;;2.5;1.3;;;;;;;30.84;31.43848;939.0092;;;;
2019/06/02 12:09:05;;;;;;;2.4;1.2;;;;;;;30.69;31.44043;938.991;;;;
2019/06/02 12:11:33;;;;;;;3;1.3;;;;;;;30.54;32.01367;938.9567;;;;
2019/06/02 12:14:09;;;;;;;1.8;1;;;;;;;30.37;31.76367;938.941;;;;
2019/06/02 12:16:36;;;;;;;2.2;1;;;;;;;29.95;31.76953;938.9354;;;;
2019/06/02 12:19:11;;;;;;;1.3;0.9;;;;;;;30.34;28.78809;938.8557;;;;
2019/06/02 12:21:36;;;;;;;6;0.9;;;;;;;30.59;29.96289;938.8461;;;;
2019/06/02 12:24:08;;;;;;;1.1;0.9;;;;;;;30.23;29.58105;938.7819;;;;
2019/06/02 12:26:41;;;;;;;1.1;1;;;;;;;30.08;28.84277;938.865;;;;
2019/06/02 12:29:15;;;;;;;2.5;0.9;;;;;;;30.39;30.09277;938.7674;;;;
2019/06/02 12:31:47;;;;;;;1;0.9;;;;;;;30.31;30.80371;938.7939;;;;
2019/06/02 12:34:21;;;;;;;3.1;1;;;;;;;30.27;29.69141;938.7795;;;;
2019/06/02 12:36:45;;;;;;;4;1.1;;;;;;;30.39;30.53516;938.7319;;;;
2019/06/02 12:39:19;;;;;;;1.9;1;;;;;;;30.41;30.26172;938.7858;;;;
2019/06/02 12:41:49;;;;;;;4.2;1;;;;;;;30.42;30.59668;938.7187;;;;
2019/06/02 12:44:40;;;;;;;3.7;1;;;;;;;30.37;30.71289;938.7307;;;;
2019/06/02 12:47:18;;;;;;;2.7;0.9;;;;;;;30.33;30.94824;938.7255;;;;
2019/06/02 12:49:50;;;;;;;1.9;1;;;;;;;30.24;30.39355;938.6744;;;;
2019/06/02 12:52:19;;;;;;;3.2;1;;;;;;;29.66;32.54785;938.7209;;;;
2019/06/02 12:55:02;;;;;;;2.9;1.1;;;;;;;30.08;32.81641;938.6941;;;;
2019/06/02 12:57:29;;;;;;;3;1.1;;;;;;;30.38;30.57031;938.6241;;;;
2019/06/02 12:59:57;;;;;;;5.5;1.1;;;;;;;30.36;31.69141;938.6886;;;;
2019/06/02 13:02:36;;;;;;;4.2;1.1;;;;;;;30.27;32.52051;938.6086;;;;
2019/06/02 13:05:05;;;;;;;4.7;1.4;;;;;;;30.21;31.68066;938.6453;;;;
2019/06/02 13:07:41;;;;;;;5.2;1.2;;;;;;;30.36;31.44043;938.611;;;;
2019/06/02 13:10:13;;;;;;;8.5;1.3;;;;;;;30.22;32.09961;938.573;;;;
2019/06/02 13:12:45;;;;;;;1.9;1.1;;;;;;;30.19;31.39355;938.5691;;;;
2019/06/02 13:15:20;;;;;;;1.9;1;;;;;;;29.94;31.78125;938.5556;;;;
2019/06/02 13:17:46;;;;;;;4.1;1.1;;;;;;;30.04;31.97949;938.5338;;;;
2019/06/02 13:20:16;;;;;;;6.2;1.1;;;;;;;30.06;33.17383;938.5312;;;;
2019/06/02 13:22:47;;;;;;;2.5;1.1;;;;;;;30.33;31.12793;938.4849;;;;
2019/06/02 13:25:18;;;;;;;3;1.1;;;;;;;30.16;31.17578;938.4297;;;;
2019/06/02 13:27:50;;;;;;;4.4;1.3;;;;;;;29.92;33.17578;938.4191;;;;
2019/06/02 13:30:10;;;;;;;5.4;1.5;;;;;;;29.75;33.81934;938.373;;;;
2019/06/02 13:32:48;;;;;;;2.1;1.1;;;;;;;29.52;32.45508;938.3293;;;;
2019/06/02 13:35:09;;;;;;;2.9;1.3;;;;;;;29.77;31.75684;938.3703;;;;
2019/06/02 13:37:44;;;;;;;5.6;1.5;;;;;;;29.63;33.7373;938.3333;;;;
2019/06/02 13:40:07;;;;;;;3;1.3;;;;;;;29.66;34.6709;938.3283;;;;
2019/06/02 13:43:00;;;;;;;2.9;1.3;;;;;;;29.48;32.96484;938.2662;;;;
2019/06/02 13:45:29;;;;;;;1.9;1.4;;;;;;;29.41;32.19629;938.1777;;;;
2019/06/02 13:48:03;;;;;;;3.8;2;;;;;;;29.37;33.25391;938.2761;;;;
2019/06/02 13:50:26;;;;;;;2.9;1.6;;;;;;;29.32;35.1084;938.2721;;;;
2019/06/02 13:58:52;;;;;;;2.6;1.3;;;;;;;29.43;34.06934;938.1566;;;;
2019/06/02 14:01:21;;;;;;;4.4;1.4;;;;;;;29.19;33.31348;938.1351;;;;
2019/06/02 14:03:53;;;;;;;3.5;1.1;;;;;;;29.38;33.76758;938.0989;;;;
2019/06/02 14:06:25;;;;;;;2.8;1.4;;;;;;;29.38;33.67188;938.1082;;;;
2019/06/02 14:08:59;;;;;;;2.3;1.3;;;;;;;29.49;32.5;938.085;;;;
2019/06/02 14:11:43;;;;;;;4.7;1.3;;;;;;;29.41;35.10352;938.0293;;;;
2019/06/02 14:14:21;;;;;;;3.8;1.4;;;;;;;29.34;34.00195;937.9886;;;;
2019/06/02 14:16:56;;;;;;;3.5;1.2;;;;;;;29.38;33.57617;938.0372;;;;
2019/06/02 14:19:28;;;;;;;2;1.2;;;;;;;29.37;33.31348;938.0175;;;;
2019/06/02 14:22:00;;;;;;;3.8;1.3;;;;;;;29.34;32.14453;937.9833;;;;
2019/06/02 14:24:24;;;;;;;1.6;1.2;;;;;;;29.31;32.85645;937.9361;;;;
2019/06/02 14:26:54;;;;;;;2.5;1.2;;;;;;;29.33;33.14453;937.9807;;;;
2019/06/02 14:29:19;;;;;;;3.3;1.2;;;;;;;29.11;32.94922;937.9828;;;;
2019/06/02 14:31:53;;;;;;;1.8;1.2;;;;;;;28.67;34.02344;937.9299;;;;
2019/06/02 14:34:20;;;;;;;2.4;1.4;;;;;;;29;35.54883;937.9063;;;;
2019/06/02 14:36:49;;;;;;;3.8;1.3;;;;;;;29.01;34.73926;937.9614;;;;
2019/06/02 14:39:13;;;;;;;2.6;1.2;;;;;;;29;33.40527;937.88;;;;
2019/06/02 14:41:45;;;;;;;3;1.5;;;;;;;28.87;34.76465;937.9323;;;;
2019/06/02 14:44:28;;;;;;;1.8;1.2;;;;;;;28.97;33.25977;937.7672;;;;
2019/06/02 14:46:48;;;;;;;1.5;1.1;;;;;;;28.95;32.88965;937.8524;;;;
2019/06/02 14:49:15;;;;;;;2.7;1.2;;;;;;;28.8;34.89063;937.8161;;;;
2019/06/02 14:51:42;;;;;;;2.5;1.3;;;;;;;28.83;33.38086;937.7325;;;;
2019/06/02 14:54:15;;;;;;;1.4;1.2;;;;;;;28.75;34.05273;937.7687;;;;
2019/06/02 14:57:01;;;;;;;2.2;1.2;;;;;;;28.61;33.84082;937.7392;;;;
2019/06/02 14:59:25;;;;;;;2;1.2;;;;;;;28.65;33.91504;937.7068;;;;
2019/06/02 15:01:44;;;;;;;3.8;1.4;;;;;;;28.51;36.30664;937.6944;;;;
2019/06/02 15:04:39;;;;;;;4.5;1.3;;;;;;;28.48;34.44922;937.7781;;;;
2019/06/02 15:07:14;;;;;;;2.7;1.4;;;;;;;28.5;35.58008;937.7455;;;;
2019/06/02 15:09:45;;;;;;;2.3;1.2;;;;;;;28.56;35.54883;937.6434;;;;
2019/06/02 15:12:15;;;;;;;2.1;1.1;;;;;;;28.4;34.22852;937.6701;;;;
2019/06/02 15:14:47;;;;;;;3.5;1.2;;;;;;;28.45;34.33984;937.6653;;;;
2019/06/02 15:17:17;;;;;;;1.5;1.2;;;;;;;28.28;34.64746;937.6853;;;;
2019/06/02 15:19:57;;;;;;;4;1.4;;;;;;;27.9;34.30957;937.6656;;;;
2019/06/02 15:22:24;;;;;;;3.3;1.2;;;;;;;28.13;35.12305;937.6841;;;;
2019/06/02 15:24:52;;;;;;;3;1.2;;;;;;;28.02;34.5918;937.5969;;;;
2019/06/02 15:27:18;;;;;;;2.9;1.5;;;;;;;27.92;35.16602;937.557;;;;
2019/06/02 15:30:00;;;;;;;2.7;1.5;;;;;;;27.65;34.43359;937.5355;;;;
2019/06/02 15:32:42;;;;;;;1.8;1.3;;;;;;;28.03;35.30566;937.53;;;;
2019/06/02 15:35:16;;;;;;;5;1.3;;;;;;;28.03;34.72363;937.5251;;;;
2019/06/02 15:37:50;;;;;;;2.8;1.3;;;;;;;27.95;35.48926;937.4917;;;;
2019/06/02 15:40:14;;;;;;;3;1.3;;;;;;;28.04;35.05762;937.5801;;;;
2019/06/02 15:42:54;;;;;;;2.7;1.5;;;;;;;27.98;35.02832;937.5023;;;;
2019/06/02 15:45:26;;;;;;;3.7;1.3;;;;;;;27.98;36.28711;937.5036;;;;
2019/06/02 15:47:53;;;;;;;2.6;1.7;;;;;;;27.76;34.84473;937.5178;;;;
2019/06/02 15:50:42;;;;;;;3;1.8;;;;;;;27.66;34.94336;937.5303;;;;
2019/06/02 15:53:22;;;;;;;2.1;1.5;;;;;;;27.77;34.18164;937.3674;;;;
2019/06/02 15:56:03;;;;;;;4;1.5;;;;;;;28.1;35.32324;937.4612;;;;
2019/06/02 15:58:32;;;;;;;3.7;1.6;;;;;;;28.2;35.4375;937.48;;;;
2019/06/02 16:01:05;;;;;;;2.2;1.4;;;;;;;28.15;34.94629;937.3789;;;;
2019/06/02 16:03:37;;;;;;;2.4;1.3;;;;;;;28.03;34.68848;937.4384;;;;
2019/06/02 16:06:21;;;;;;;2.2;1.2;;;;;;;27.92;33.85938;937.5137;;;;
2019/06/02 16:08:42;;;;;;;1.6;1.3;;;;;;;27.92;34.0625;937.4863;;;;
2019/06/02 16:11:28;;;;;;;3.4;1.4;;;;;;;28.01;33.74805;937.4409;;;;
2019/06/02 16:14:01;;;;;;;1.9;1.4;;;;;;;28.05;34.72559;937.4047;;;;